Terminal Aerodrome Forecast
Issued by NWS Sterling, VA

Home | Current Version | Previous Version | Text Only | Print | Product List | Glossary On
Versions: 1 2 3 4 5 6 7 8 9 10 11 12 13 14 15 16 17 18 19 20 21 22 23
000
FTUS41 KLWX 231730
TAFIAD
TAF
KIAD 231730Z 2318/2424 20008KT P6SM SCT070
     FM240000 19005KT P6SM BKN080
     FM240500 19005KT P6SM SCT080
     FM240900 18005KT 3SM BR SCT110
     FM241500 18007KT P6SM SCT150
     FM241900 18011KT P6SM SCT150=

USA.gov is the U.S. government's official web portal to all federal, state and local government web resources and services.